sensor_id;sensor_type;location;lat;lon;timestamp;P1;durP1;ratioP1;P2;durP2;ratioP2
13457;SDS011;6801;53.018;11.560;2024-01-16T00:00:43;3.42;;;1.40;;
13457;SDS011;6801;53.018;11.560;2024-01-16T00:03:09;3.45;;;1.38;;
13457;SDS011;6801;53.018;11.560;2024-01-16T00:05:38;3.90;;;1.30;;
13457;SDS011;6801;53.018;11.560;2024-01-16T00:08:05;2.28;;;1.15;;
13457;SDS011;6801;53.018;11.560;2024-01-16T00:10:32;3.03;;;1.05;;
13457;SDS011;6801;53.018;11.560;2024-01-16T00:12:58;3.65;;;1.13;;
13457;SDS011;6801;53.018;11.560;2024-01-16T00:15:25;2.70;;;1.20;;
13457;SDS011;6801;53.018;11.560;2024-01-16T00:17:52;5.75;;;1.25;;
13457;SDS011;6801;53.018;11.560;2024-01-16T00:20:20;3.70;;;1.15;;
13457;SDS011;6801;53.018;11.560;2024-01-16T00:22:50;2.70;;;0.98;;
13457;SDS011;6801;53.018;11.560;2024-01-16T00:25:17;2.05;;;1.15;;
13457;SDS011;6801;53.018;11.560;2024-01-16T00:27:45;4.93;;;1.58;;
13457;SDS011;6801;53.018;11.560;2024-01-16T00:30:12;4.55;;;1.65;;
13457;SDS011;6801;53.018;11.560;2024-01-16T00:32:39;4.10;;;1.88;;
13457;SDS011;6801;53.018;11.560;2024-01-16T00:35:07;2.78;;;1.42;;
13457;SDS011;6801;53.018;11.560;2024-01-16T00:37:35;5.72;;;1.80;;
13457;SDS011;6801;53.018;11.560;2024-01-16T00:40:05;3.33;;;1.48;;
13457;SDS011;6801;53.018;11.560;2024-01-16T00:42:34;6.43;;;1.98;;
13457;SDS011;6801;53.018;11.560;2024-01-16T00:45:01;4.28;;;1.67;;
13457;SDS011;6801;53.018;11.560;2024-01-16T00:47:28;3.25;;;1.25;;
13457;SDS011;6801;53.018;11.560;2024-01-16T00:49:55;5.47;;;1.40;;
13457;SDS011;6801;53.018;11.560;2024-01-16T00:52:22;4.80;;;1.70;;
13457;SDS011;6801;53.018;11.560;2024-01-16T00:54:48;5.53;;;1.40;;
13457;SDS011;6801;53.018;11.560;2024-01-16T00:57:17;5.85;;;2.03;;
13457;SDS011;6801;53.018;11.560;2024-01-16T00:59:44;5.82;;;1.63;;
13457;SDS011;6801;53.018;11.560;2024-01-16T01:02:11;3.38;;;1.65;;
13457;SDS011;6801;53.018;11.560;2024-01-16T01:04:38;4.47;;;1.50;;
13457;SDS011;6801;53.018;11.560;2024-01-16T01:07:06;5.93;;;1.60;;
13457;SDS011;6801;53.018;11.560;2024-01-16T01:09:33;9.80;;;2.22;;
13457;SDS011;6801;53.018;11.560;2024-01-16T01:12:00;6.78;;;2.03;;
13457;SDS011;6801;53.018;11.560;2024-01-16T01:14:29;8.95;;;3.10;;
13457;SDS011;6801;53.018;11.560;2024-01-16T01:16:56;4.97;;;1.80;;
13457;SDS011;6801;53.018;11.560;2024-01-16T01:19:23;4.15;;;1.50;;
13457;SDS011;6801;53.018;11.560;2024-01-16T01:21:50;3.95;;;1.70;;
13457;SDS011;6801;53.018;11.560;2024-01-16T01:24:17;3.65;;;1.75;;
13457;SDS011;6801;53.018;11.560;2024-01-16T01:26:44;4.07;;;1.88;;
13457;SDS011;6801;53.018;11.560;2024-01-16T01:29:11;3.97;;;1.60;;
13457;SDS011;6801;53.018;11.560;2024-01-16T01:31:39;3.55;;;1.50;;
13457;SDS011;6801;53.018;11.560;2024-01-16T01:34:06;3.50;;;1.63;;
13457;SDS011;6801;53.018;11.560;2024-01-16T01:36:33;3.65;;;1.52;;
13457;SDS011;6801;53.018;11.560;2024-01-16T01:39:00;4.63;;;1.92;;
13457;SDS011;6801;53.018;11.560;2024-01-16T01:41:28;3.78;;;1.58;;
13457;SDS011;6801;53.018;11.560;2024-01-16T01:43:55;3.67;;;1.60;;
13457;SDS011;6801;53.018;11.560;2024-01-16T01:46:22;4.07;;;1.75;;
13457;SDS011;6801;53.018;11.560;2024-01-16T01:48:51;4.97;;;1.35;;
13457;SDS011;6801;53.018;11.560;2024-01-16T01:51:18;7.32;;;1.65;;
13457;SDS011;6801;53.018;11.560;2024-01-16T01:53:46;5.93;;;1.38;;
13457;SDS011;6801;53.018;11.560;2024-01-16T01:56:16;3.40;;;1.55;;
13457;SDS011;6801;53.018;11.560;2024-01-16T01:58:45;3.70;;;1.45;;
13457;SDS011;6801;53.018;11.560;2024-01-16T02:01:13;3.20;;;1.52;;
13457;SDS011;6801;53.018;11.560;2024-01-16T02:03:42;3.97;;;1.25;;
13457;SDS011;6801;53.018;11.560;2024-01-16T02:06:11;5.15;;;1.60;;
13457;SDS011;6801;53.018;11.560;2024-01-16T02:08:40;3.17;;;1.23;;
13457;SDS011;6801;53.018;11.560;2024-01-16T02:11:07;3.85;;;1.50;;
13457;SDS011;6801;53.018;11.560;2024-01-16T02:13:34;4.28;;;1.25;;
13457;SDS011;6801;53.018;11.560;2024-01-16T02:16:02;3.83;;;1.55;;
13457;SDS011;6801;53.018;11.560;2024-01-16T02:18:31;5.13;;;0.98;;
13457;SDS011;6801;53.018;11.560;2024-01-16T02:20:59;3.58;;;1.48;;
13457;SDS011;6801;53.018;11.560;2024-01-16T02:23:28;3.70;;;1.05;;
13457;SDS011;6801;53.018;11.560;2024-01-16T02:25:56;7.00;;;1.80;;
13457;SDS011;6801;53.018;11.560;2024-01-16T02:28:23;3.15;;;1.35;;
13457;SDS011;6801;53.018;11.560;2024-01-16T02:30:50;4.53;;;1.27;;
13457;SDS011;6801;53.018;11.560;2024-01-16T02:33:17;4.63;;;1.58;;
13457;SDS011;6801;53.018;11.560;2024-01-16T02:35:44;3.33;;;1.42;;
13457;SDS011;6801;53.018;11.560;2024-01-16T02:38:11;4.03;;;1.88;;
13457;SDS011;6801;53.018;11.560;2024-01-16T02:40:39;4.45;;;2.05;;
13457;SDS011;6801;53.018;11.560;2024-01-16T02:43:06;5.78;;;1.65;;
13457;SDS011;6801;53.018;11.560;2024-01-16T02:45:33;3.90;;;1.60;;
13457;SDS011;6801;53.018;11.560;2024-01-16T02:48:00;5.05;;;2.20;;
13457;SDS011;6801;53.018;11.560;2024-01-16T02:50:28;4.45;;;1.80;;
13457;SDS011;6801;53.018;11.560;2024-01-16T02:52:55;5.85;;;2.22;;
13457;SDS011;6801;53.018;11.560;2024-01-16T02:55:22;3.67;;;1.80;;
13457;SDS011;6801;53.018;11.560;2024-01-16T02:57:51;8.07;;;1.88;;
13457;SDS011;6801;53.018;11.560;2024-01-16T03:00:18;5.00;;;1.90;;
13457;SDS011;6801;53.018;11.560;2024-01-16T03:02:45;7.50;;;1.80;;
13457;SDS011;6801;53.018;11.560;2024-01-16T03:05:12;3.78;;;1.63;;
13457;SDS011;6801;53.018;11.560;2024-01-16T03:07:39;5.07;;;1.92;;
13457;SDS011;6801;53.018;11.560;2024-01-16T03:10:06;3.92;;;1.90;;
13457;SDS011;6801;53.018;11.560;2024-01-16T03:12:33;4.18;;;2.42;;
13457;SDS011;6801;53.018;11.560;2024-01-16T03:15:01;5.60;;;1.50;;
13457;SDS011;6801;53.018;11.560;2024-01-16T03:17:29;4.57;;;2.10;;
13457;SDS011;6801;53.018;11.560;2024-01-16T03:19:55;3.08;;;1.55;;
13457;SDS011;6801;53.018;11.560;2024-01-16T03:22:22;8.40;;;2.10;;
13457;SDS011;6801;53.018;11.560;2024-01-16T03:24:50;5.85;;;2.00;;
13457;SDS011;6801;53.018;11.560;2024-01-16T03:27:17;4.95;;;1.73;;
13457;SDS011;6801;53.018;11.560;2024-01-16T03:29:44;3.75;;;1.80;;
13457;SDS011;6801;53.018;11.560;2024-01-16T03:32:13;6.53;;;1.90;;
13457;SDS011;6801;53.018;11.560;2024-01-16T03:34:40;3.50;;;1.75;;
13457;SDS011;6801;53.018;11.560;2024-01-16T03:37:07;3.47;;;1.52;;
13457;SDS011;6801;53.018;11.560;2024-01-16T03:39:34;4.00;;;1.70;;
13457;SDS011;6801;53.018;11.560;2024-01-16T03:42:01;4.13;;;1.63;;
13457;SDS011;6801;53.018;11.560;2024-01-16T03:44:28;2.20;;;1.50;;
13457;SDS011;6801;53.018;11.560;2024-01-16T03:46:54;3.95;;;1.90;;
13457;SDS011;6801;53.018;11.560;2024-01-16T03:49:23;3.90;;;1.98;;
13457;SDS011;6801;53.018;11.560;2024-01-16T03:51:51;3.38;;;1.75;;
13457;SDS011;6801;53.018;11.560;2024-01-16T03:54:17;4.97;;;1.48;;
13457;SDS011;6801;53.018;11.560;2024-01-16T03:56:44;3.60;;;1.70;;
13457;SDS011;6801;53.018;11.560;2024-01-16T03:59:12;6.10;;;1.92;;
13457;SDS011;6801;53.018;11.560;2024-01-16T04:01:38;3.65;;;1.80;;
13457;SDS011;6801;53.018;11.560;2024-01-16T04:04:07;9.02;;;1.98;;
13457;SDS011;6801;53.018;11.560;2024-01-16T04:06:36;3.72;;;1.75;;
13457;SDS011;6801;53.018;11.560;2024-01-16T04:09:03;4.18;;;2.25;;
13457;SDS011;6801;53.018;11.560;2024-01-16T04:11:31;3.97;;;1.60;;
13457;SDS011;6801;53.018;11.560;2024-01-16T04:13:58;3.53;;;1.80;;
13457;SDS011;6801;53.018;11.560;2024-01-16T04:16:25;3.55;;;2.13;;
13457;SDS011;6801;53.018;11.560;2024-01-16T04:18:52;4.88;;;2.10;;
13457;SDS011;6801;53.018;11.560;2024-01-16T04:21:19;4.82;;;1.90;;
13457;SDS011;6801;53.018;11.560;2024-01-16T04:23:47;5.97;;;1.90;;
13457;SDS011;6801;53.018;11.560;2024-01-16T04:26:14;2.92;;;1.70;;
13457;SDS011;6801;53.018;11.560;2024-01-16T04:28:41;7.70;;;2.17;;
13457;SDS011;6801;53.018;11.560;2024-01-16T04:31:08;4.28;;;1.75;;
13457;SDS011;6801;53.018;11.560;2024-01-16T04:33:36;4.88;;;2.58;;
13457;SDS011;6801;53.018;11.560;2024-01-16T04:36:04;3.35;;;2.10;;
13457;SDS011;6801;53.018;11.560;2024-01-16T04:38:31;3.67;;;1.63;;
13457;SDS011;6801;53.018;11.560;2024-01-16T04:41:02;6.65;;;2.00;;
13457;SDS011;6801;53.018;11.560;2024-01-16T04:43:29;4.63;;;1.98;;
13457;SDS011;6801;53.018;11.560;2024-01-16T04:45:56;3.33;;;1.65;;
13457;SDS011;6801;53.018;11.560;2024-01-16T04:48:23;4.97;;;1.75;;
13457;SDS011;6801;53.018;11.560;2024-01-16T04:50:50;3.67;;;2.00;;
13457;SDS011;6801;53.018;11.560;2024-01-16T04:53:17;3.83;;;1.88;;
13457;SDS011;6801;53.018;11.560;2024-01-16T04:55:44;5.75;;;2.30;;
13457;SDS011;6801;53.018;11.560;2024-01-16T04:58:12;6.60;;;1.98;;
13457;SDS011;6801;53.018;11.560;2024-01-16T05:00:39;6.30;;;2.50;;
13457;SDS011;6801;53.018;11.560;2024-01-16T05:03:06;5.60;;;2.50;;
13457;SDS011;6801;53.018;11.560;2024-01-16T05:05:33;5.20;;;2.17;;
13457;SDS011;6801;53.018;11.560;2024-01-16T05:08:00;4.45;;;2.25;;
13457;SDS011;6801;53.018;11.560;2024-01-16T05:10:28;4.10;;;2.25;;
13457;SDS011;6801;53.018;11.560;2024-01-16T05:12:55;4.40;;;2.42;;
13457;SDS011;6801;53.018;11.560;2024-01-16T05:15:24;5.75;;;3.13;;
13457;SDS011;6801;53.018;11.560;2024-01-16T05:17:50;6.32;;;2.38;;
13457;SDS011;6801;53.018;11.560;2024-01-16T05:20:18;7.18;;;2.42;;
13457;SDS011;6801;53.018;11.560;2024-01-16T05:22:46;4.70;;;2.83;;
13457;SDS011;6801;53.018;11.560;2024-01-16T05:25:13;5.97;;;2.92;;
13457;SDS011;6801;53.018;11.560;2024-01-16T05:27:42;5.50;;;3.20;;
13457;SDS011;6801;53.018;11.560;2024-01-16T05:30:10;3.95;;;2.75;;
13457;SDS011;6801;53.018;11.560;2024-01-16T05:32:38;6.53;;;2.92;;
13457;SDS011;6801;53.018;11.560;2024-01-16T05:35:07;4.50;;;2.40;;
13457;SDS011;6801;53.018;11.560;2024-01-16T05:37:34;7.53;;;2.90;;
13457;SDS011;6801;53.018;11.560;2024-01-16T05:40:02;6.28;;;2.80;;
13457;SDS011;6801;53.018;11.560;2024-01-16T05:42:31;5.40;;;3.10;;
13457;SDS011;6801;53.018;11.560;2024-01-16T05:44:58;5.40;;;2.90;;
13457;SDS011;6801;53.018;11.560;2024-01-16T05:47:24;6.53;;;3.08;;
13457;SDS011;6801;53.018;11.560;2024-01-16T05:49:54;5.85;;;3.03;;
13457;SDS011;6801;53.018;11.560;2024-01-16T05:52:21;7.45;;;3.15;;
13457;SDS011;6801;53.018;11.560;2024-01-16T05:54:49;7.38;;;3.30;;
13457;SDS011;6801;53.018;11.560;2024-01-16T05:57:16;5.85;;;3.15;;
13457;SDS011;6801;53.018;11.560;2024-01-16T05:59:43;7.93;;;3.88;;
13457;SDS011;6801;53.018;11.560;2024-01-16T06:02:10;6.75;;;3.58;;
13457;SDS011;6801;53.018;11.560;2024-01-16T06:04:38;6.50;;;3.65;;
13457;SDS011;6801;53.018;11.560;2024-01-16T06:07:06;6.90;;;3.45;;
13457;SDS011;6801;53.018;11.560;2024-01-16T06:09:33;7.95;;;3.75;;
13457;SDS011;6801;53.018;11.560;2024-01-16T06:14:32;8.18;;;3.72;;
13457;SDS011;6801;53.018;11.560;2024-01-16T06:16:59;5.93;;;3.30;;
13457;SDS011;6801;53.018;11.560;2024-01-16T06:19:26;6.97;;;3.35;;
13457;SDS011;6801;53.018;11.560;2024-01-16T06:21:52;7.78;;;4.00;;
13457;SDS011;6801;53.018;11.560;2024-01-16T06:24:21;7.90;;;3.50;;
13457;SDS011;6801;53.018;11.560;2024-01-16T06:26:48;6.90;;;3.40;;
13457;SDS011;6801;53.018;11.560;2024-01-16T06:29:14;6.72;;;3.47;;
13457;SDS011;6801;53.018;11.560;2024-01-16T06:31:41;7.55;;;4.50;;
13457;SDS011;6801;53.018;11.560;2024-01-16T06:34:08;8.10;;;3.85;;
13457;SDS011;6801;53.018;11.560;2024-01-16T06:36:35;7.38;;;4.72;;
13457;SDS011;6801;53.018;11.560;2024-01-16T06:39:02;7.38;;;3.97;;
13457;SDS011;6801;53.018;11.560;2024-01-16T06:41:30;7.65;;;4.78;;
13457;SDS011;6801;53.018;11.560;2024-01-16T06:43:57;8.43;;;4.68;;
13457;SDS011;6801;53.018;11.560;2024-01-16T06:46:24;7.25;;;4.38;;
13457;SDS011;6801;53.018;11.560;2024-01-16T06:48:51;7.32;;;4.35;;
13457;SDS011;6801;53.018;11.560;2024-01-16T06:51:18;9.02;;;5.13;;
13457;SDS011;6801;53.018;11.560;2024-01-16T06:53:45;8.20;;;4.70;;
13457;SDS011;6801;53.018;11.560;2024-01-16T06:56:12;8.77;;;4.05;;
13457;SDS011;6801;53.018;11.560;2024-01-16T06:58:40;8.80;;;4.70;;
13457;SDS011;6801;53.018;11.560;2024-01-16T07:01:08;8.13;;;4.53;;
13457;SDS011;6801;53.018;11.560;2024-01-16T07:03:35;7.57;;;4.53;;
13457;SDS011;6801;53.018;11.560;2024-01-16T07:06:02;6.70;;;4.07;;
13457;SDS011;6801;53.018;11.560;2024-01-16T07:08:29;7.15;;;4.35;;
13457;SDS011;6801;53.018;11.560;2024-01-16T07:10:56;6.85;;;4.38;;
13457;SDS011;6801;53.018;11.560;2024-01-16T07:13:23;9.43;;;4.85;;
13457;SDS011;6801;53.018;11.560;2024-01-16T07:15:52;6.82;;;3.92;;
13457;SDS011;6801;53.018;11.560;2024-01-16T07:18:19;7.88;;;4.22;;
13457;SDS011;6801;53.018;11.560;2024-01-16T07:20:45;10.38;;;6.70;;
13457;SDS011;6801;53.018;11.560;2024-01-16T07:23:12;12.15;;;9.23;;
13457;SDS011;6801;53.018;11.560;2024-01-16T07:25:39;11.20;;;8.10;;
13457;SDS011;6801;53.018;11.560;2024-01-16T07:28:06;7.07;;;4.57;;
13457;SDS011;6801;53.018;11.560;2024-01-16T07:30:34;8.38;;;5.28;;
13457;SDS011;6801;53.018;11.560;2024-01-16T07:33:03;11.80;;;5.72;;
13457;SDS011;6801;53.018;11.560;2024-01-16T07:35:30;5.97;;;3.72;;
13457;SDS011;6801;53.018;11.560;2024-01-16T07:37:57;6.63;;;4.22;;
13457;SDS011;6801;53.018;11.560;2024-01-16T07:40:24;13.40;;;7.60;;
13457;SDS011;6801;53.018;11.560;2024-01-16T07:42:51;17.77;;;9.23;;
13457;SDS011;6801;53.018;11.560;2024-01-16T07:45:18;11.00;;;6.22;;
13457;SDS011;6801;53.018;11.560;2024-01-16T07:47:45;7.53;;;4.78;;
13457;SDS011;6801;53.018;11.560;2024-01-16T07:50:13;7.03;;;4.20;;
13457;SDS011;6801;53.018;11.560;2024-01-16T07:52:41;6.57;;;3.53;;
13457;SDS011;6801;53.018;11.560;2024-01-16T07:55:08;6.50;;;3.65;;
13457;SDS011;6801;53.018;11.560;2024-01-16T07:57:35;6.95;;;4.22;;
13457;SDS011;6801;53.018;11.560;2024-01-16T08:00:02;5.68;;;3.13;;
13457;SDS011;6801;53.018;11.560;2024-01-16T08:02:34;5.90;;;3.83;;
13457;SDS011;6801;53.018;11.560;2024-01-16T08:05:02;7.22;;;4.70;;
13457;SDS011;6801;53.018;11.560;2024-01-16T08:07:31;6.03;;;3.88;;
13457;SDS011;6801;53.018;11.560;2024-01-16T08:09:59;6.80;;;3.73;;
13457;SDS011;6801;53.018;11.560;2024-01-16T08:12:27;4.63;;;3.05;;
13457;SDS011;6801;53.018;11.560;2024-01-16T08:14:54;5.55;;;2.60;;
13457;SDS011;6801;53.018;11.560;2024-01-16T08:17:21;7.10;;;4.18;;
13457;SDS011;6801;53.018;11.560;2024-01-16T08:19:48;5.80;;;2.92;;
13457;SDS011;6801;53.018;11.560;2024-01-16T08:22:15;5.05;;;2.47;;
13457;SDS011;6801;53.018;11.560;2024-01-16T08:24:43;5.47;;;2.95;;
13457;SDS011;6801;53.018;11.560;2024-01-16T08:27:10;5.55;;;2.42;;
13457;SDS011;6801;53.018;11.560;2024-01-16T08:29:37;5.53;;;2.22;;
13457;SDS011;6801;53.018;11.560;2024-01-16T08:32:04;5.72;;;2.33;;
13457;SDS011;6801;53.018;11.560;2024-01-16T08:34:31;7.68;;;2.20;;
13457;SDS011;6801;53.018;11.560;2024-01-16T08:36:58;5.65;;;2.75;;
13457;SDS011;6801;53.018;11.560;2024-01-16T08:39:25;4.22;;;1.95;;
13457;SDS011;6801;53.018;11.560;2024-01-16T08:41:55;11.00;;;2.78;;
13457;SDS011;6801;53.018;11.560;2024-01-16T08:44:22;3.90;;;1.70;;
13457;SDS011;6801;53.018;11.560;2024-01-16T08:46:49;8.07;;;2.85;;
13457;SDS011;6801;53.018;11.560;2024-01-16T08:49:16;4.82;;;1.70;;
13457;SDS011;6801;53.018;11.560;2024-01-16T08:51:43;5.22;;;1.70;;
13457;SDS011;6801;53.018;11.560;2024-01-16T08:54:10;3.67;;;1.52;;
13457;SDS011;6801;53.018;11.560;2024-01-16T08:56:37;5.35;;;1.85;;
13457;SDS011;6801;53.018;11.560;2024-01-16T08:59:05;6.10;;;2.72;;
13457;SDS011;6801;53.018;11.560;2024-01-16T09:01:33;3.83;;;2.33;;
13457;SDS011;6801;53.018;11.560;2024-01-16T09:04:00;4.40;;;1.90;;
13457;SDS011;6801;53.018;11.560;2024-01-16T09:06:27;3.88;;;1.38;;
13457;SDS011;6801;53.018;11.560;2024-01-16T09:08:54;4.88;;;1.33;;
13457;SDS011;6801;53.018;11.560;2024-01-16T09:11:20;3.05;;;1.02;;
13457;SDS011;6801;53.018;11.560;2024-01-16T09:13:47;9.80;;;1.60;;
13457;SDS011;6801;53.018;11.560;2024-01-16T09:16:16;4.78;;;1.63;;
13457;SDS011;6801;53.018;11.560;2024-01-16T09:18:43;6.25;;;1.27;;
13457;SDS011;6801;53.018;11.560;2024-01-16T09:21:09;4.68;;;1.35;;
13457;SDS011;6801;53.018;11.560;2024-01-16T09:23:37;7.13;;;1.30;;
13457;SDS011;6801;53.018;11.560;2024-01-16T09:26:03;7.70;;;1.52;;
13457;SDS011;6801;53.018;11.560;2024-01-16T09:28:30;8.73;;;1.20;;
13457;SDS011;6801;53.018;11.560;2024-01-16T09:30:57;6.22;;;2.03;;
13457;SDS011;6801;53.018;11.560;2024-01-16T09:33:26;3.47;;;1.50;;
13457;SDS011;6801;53.018;11.560;2024-01-16T09:35:53;3.90;;;1.20;;
13457;SDS011;6801;53.018;11.560;2024-01-16T09:38:20;9.30;;;2.45;;
13457;SDS011;6801;53.018;11.560;2024-01-16T09:40:47;7.25;;;1.35;;
13457;SDS011;6801;53.018;11.560;2024-01-16T09:43:16;6.35;;;1.58;;
13457;SDS011;6801;53.018;11.560;2024-01-16T09:45:42;8.07;;;1.73;;
13457;SDS011;6801;53.018;11.560;2024-01-16T09:48:11;7.90;;;1.85;;
13457;SDS011;6801;53.018;11.560;2024-01-16T09:50:40;6.40;;;1.80;;
13457;SDS011;6801;53.018;11.560;2024-01-16T09:53:07;8.20;;;2.20;;
13457;SDS011;6801;53.018;11.560;2024-01-16T09:55:36;5.28;;;1.67;;
13457;SDS011;6801;53.018;11.560;2024-01-16T09:58:03;4.88;;;1.88;;
13457;SDS011;6801;53.018;11.560;2024-01-16T10:00:33;10.77;;;2.35;;
13457;SDS011;6801;53.018;11.560;2024-01-16T10:03:01;6.20;;;2.47;;
13457;SDS011;6801;53.018;11.560;2024-01-16T10:05:29;10.40;;;2.30;;
13457;SDS011;6801;53.018;11.560;2024-01-16T10:07:58;6.82;;;2.25;;
13457;SDS011;6801;53.018;11.560;2024-01-16T10:10:25;10.77;;;2.33;;
13457;SDS011;6801;53.018;11.560;2024-01-16T10:12:53;6.75;;;1.50;;
13457;SDS011;6801;53.018;11.560;2024-01-16T10:15:22;7.05;;;2.50;;
13457;SDS011;6801;53.018;11.560;2024-01-16T10:17:50;11.20;;;2.75;;
13457;SDS011;6801;53.018;11.560;2024-01-16T10:20:18;9.35;;;2.35;;
13457;SDS011;6801;53.018;11.560;2024-01-16T10:22:59;10.70;;;2.08;;
13457;SDS011;6801;53.018;11.560;2024-01-16T10:25:28;2.80;;;2.00;;
13457;SDS011;6801;53.018;11.560;2024-01-16T10:28:02;6.22;;;1.73;;
13457;SDS011;6801;53.018;11.560;2024-01-16T10:30:32;6.68;;;1.92;;
13457;SDS011;6801;53.018;11.560;2024-01-16T10:33:12;7.78;;;1.75;;
13457;SDS011;6801;53.018;11.560;2024-01-16T10:35:40;7.93;;;2.17;;
13457;SDS011;6801;53.018;11.560;2024-01-16T10:38:09;5.85;;;1.80;;
13457;SDS011;6801;53.018;11.560;2024-01-16T10:40:36;7.93;;;2.38;;
13457;SDS011;6801;53.018;11.560;2024-01-16T10:43:03;8.45;;;2.13;;
13457;SDS011;6801;53.018;11.560;2024-01-16T10:45:31;2.92;;;1.05;;
13457;SDS011;6801;53.018;11.560;2024-01-16T10:48:01;6.25;;;1.70;;
13457;SDS011;6801;53.018;11.560;2024-01-16T10:50:29;9.40;;;2.20;;
13457;SDS011;6801;53.018;11.560;2024-01-16T10:52:56;4.80;;;1.90;;
13457;SDS011;6801;53.018;11.560;2024-01-16T10:55:27;7.78;;;1.80;;
13457;SDS011;6801;53.018;11.560;2024-01-16T10:57:55;6.32;;;2.05;;
13457;SDS011;6801;53.018;11.560;2024-01-16T11:00:24;8.68;;;3.25;;
13457;SDS011;6801;53.018;11.560;2024-01-16T11:02:55;2.42;;;1.02;;
13457;SDS011;6801;53.018;11.560;2024-01-16T11:05:27;6.07;;;2.53;;
13457;SDS011;6801;53.018;11.560;2024-01-16T11:07:56;4.22;;;1.95;;
13457;SDS011;6801;53.018;11.560;2024-01-16T11:12:59;7.80;;;2.65;;
13457;SDS011;6801;53.018;11.560;2024-01-16T11:15:27;7.37;;;2.50;;
13457;SDS011;6801;53.018;11.560;2024-01-16T11:17:54;8.50;;;2.72;;
13457;SDS011;6801;53.018;11.560;2024-01-16T11:20:22;6.78;;;2.83;;
13457;SDS011;6801;53.018;11.560;2024-01-16T11:22:50;5.80;;;2.15;;
13457;SDS011;6801;53.018;11.560;2024-01-16T11:25:20;8.45;;;2.60;;
13457;SDS011;6801;53.018;11.560;2024-01-16T11:27:57;8.30;;;2.25;;
13457;SDS011;6801;53.018;11.560;2024-01-16T11:30:34;8.93;;;2.88;;
13457;SDS011;6801;53.018;11.560;2024-01-16T11:33:02;6.30;;;2.38;;
13457;SDS011;6801;53.018;11.560;2024-01-16T11:35:33;7.97;;;1.92;;
13457;SDS011;6801;53.018;11.560;2024-01-16T11:38:06;7.78;;;2.13;;
13457;SDS011;6801;53.018;11.560;2024-01-16T11:40:36;8.20;;;1.73;;
13457;SDS011;6801;53.018;11.560;2024-01-16T11:46:04;4.80;;;1.35;;
13457;SDS011;6801;53.018;11.560;2024-01-16T11:48:32;7.72;;;1.58;;
13457;SDS011;6801;53.018;11.560;2024-01-16T11:50:59;5.90;;;1.60;;
13457;SDS011;6801;53.018;11.560;2024-01-16T11:53:33;5.13;;;1.33;;
13457;SDS011;6801;53.018;11.560;2024-01-16T11:56:24;6.60;;;1.90;;
13457;SDS011;6801;53.018;11.560;2024-01-16T12:02:12;8.90;;;1.83;;
13457;SDS011;6801;53.018;11.560;2024-01-16T12:04:51;10.95;;;1.73;;
13457;SDS011;6801;53.018;11.560;2024-01-16T12:07:19;4.72;;;1.63;;
13457;SDS011;6801;53.018;11.560;2024-01-16T12:09:47;12.02;;;1.90;;
13457;SDS011;6801;53.018;11.560;2024-01-16T12:12:15;6.32;;;1.63;;
13457;SDS011;6801;53.018;11.560;2024-01-16T12:14:50;6.78;;;2.05;;
13457;SDS011;6801;53.018;11.560;2024-01-16T12:17:19;10.55;;;2.42;;
13457;SDS011;6801;53.018;11.560;2024-01-16T12:19:46;9.75;;;2.63;;
13457;SDS011;6801;53.018;11.560;2024-01-16T12:22:15;9.73;;;1.73;;
13457;SDS011;6801;53.018;11.560;2024-01-16T12:24:43;11.02;;;2.30;;
13457;SDS011;6801;53.018;11.560;2024-01-16T12:27:11;6.25;;;1.80;;
13457;SDS011;6801;53.018;11.560;2024-01-16T12:29:39;8.27;;;1.92;;
13457;SDS011;6801;53.018;11.560;2024-01-16T12:32:07;8.88;;;2.20;;
13457;SDS011;6801;53.018;11.560;2024-01-16T12:34:38;6.65;;;1.67;;
13457;SDS011;6801;53.018;11.560;2024-01-16T12:37:10;7.03;;;2.25;;
13457;SDS011;6801;53.018;11.560;2024-01-16T12:39:37;5.78;;;1.98;;
13457;SDS011;6801;53.018;11.560;2024-01-16T12:42:06;8.18;;;3.17;;
13457;SDS011;6801;53.018;11.560;2024-01-16T12:44:36;6.28;;;2.40;;
13457;SDS011;6801;53.018;11.560;2024-01-16T12:47:03;5.90;;;1.90;;
13457;SDS011;6801;53.018;11.560;2024-01-16T12:49:31;6.50;;;1.98;;
13457;SDS011;6801;53.018;11.560;2024-01-16T12:52:29;9.57;;;2.47;;
13457;SDS011;6801;53.018;11.560;2024-01-16T12:55:00;7.55;;;2.22;;
13457;SDS011;6801;53.018;11.560;2024-01-16T12:57:29;5.28;;;2.13;;
13457;SDS011;6801;53.018;11.560;2024-01-16T12:59:56;6.13;;;2.33;;
13457;SDS011;6801;53.018;11.560;2024-01-16T13:02:26;7.45;;;2.20;;
13457;SDS011;6801;53.018;11.560;2024-01-16T13:04:56;5.22;;;1.73;;
13457;SDS011;6801;53.018;11.560;2024-01-16T13:07:25;7.88;;;2.33;;
13457;SDS011;6801;53.018;11.560;2024-01-16T13:10:05;7.28;;;2.40;;
13457;SDS011;6801;53.018;11.560;2024-01-16T13:12:37;5.00;;;1.85;;
13457;SDS011;6801;53.018;11.560;2024-01-16T13:15:04;8.98;;;2.08;;
13457;SDS011;6801;53.018;11.560;2024-01-16T13:17:32;6.72;;;2.10;;
13457;SDS011;6801;53.018;11.560;2024-01-16T13:19:59;5.13;;;1.67;;
13457;SDS011;6801;53.018;11.560;2024-01-16T13:22:30;7.38;;;2.80;;
13457;SDS011;6801;53.018;11.560;2024-01-16T13:24:57;8.95;;;2.03;;
13457;SDS011;6801;53.018;11.560;2024-01-16T13:27:24;7.18;;;3.30;;
13457;SDS011;6801;53.018;11.560;2024-01-16T13:29:51;7.15;;;2.47;;
13457;SDS011;6801;53.018;11.560;2024-01-16T13:32:18;6.47;;;2.25;;
13457;SDS011;6801;53.018;11.560;2024-01-16T13:34:45;7.55;;;2.78;;
13457;SDS011;6801;53.018;11.560;2024-01-16T13:37:15;13.27;;;4.32;;
13457;SDS011;6801;53.018;11.560;2024-01-16T13:39:48;3.67;;;2.40;;
13457;SDS011;6801;53.018;11.560;2024-01-16T13:42:15;11.43;;;3.05;;
13457;SDS011;6801;53.018;11.560;2024-01-16T13:44:45;4.57;;;2.33;;
13457;SDS011;6801;53.018;11.560;2024-01-16T13:47:13;7.75;;;2.88;;
13457;SDS011;6801;53.018;11.560;2024-01-16T13:49:44;10.25;;;4.72;;
13457;SDS011;6801;53.018;11.560;2024-01-16T13:52:11;6.97;;;3.47;;
13457;SDS011;6801;53.018;11.560;2024-01-16T13:54:38;9.07;;;3.95;;
13457;SDS011;6801;53.018;11.560;2024-01-16T13:57:07;10.02;;;3.80;;
13457;SDS011;6801;53.018;11.560;2024-01-16T13:59:34;11.70;;;4.30;;
13457;SDS011;6801;53.018;11.560;2024-01-16T14:02:01;13.70;;;5.30;;
13457;SDS011;6801;53.018;11.560;2024-01-16T14:04:29;9.70;;;3.33;;
13457;SDS011;6801;53.018;11.560;2024-01-16T14:06:56;9.00;;;3.13;;
13457;SDS011;6801;53.018;11.560;2024-01-16T14:09:23;7.78;;;3.38;;
13457;SDS011;6801;53.018;11.560;2024-01-16T14:11:50;11.07;;;4.50;;
13457;SDS011;6801;53.018;11.560;2024-01-16T14:14:18;7.80;;;4.10;;
13457;SDS011;6801;53.018;11.560;2024-01-16T14:16:45;8.07;;;4.20;;
13457;SDS011;6801;53.018;11.560;2024-01-16T14:19:14;8.50;;;3.03;;
13457;SDS011;6801;53.018;11.560;2024-01-16T14:21:42;8.63;;;3.40;;
13457;SDS011;6801;53.018;11.560;2024-01-16T14:24:09;9.52;;;3.65;;
13457;SDS011;6801;53.018;11.560;2024-01-16T14:26:36;8.75;;;3.58;;
13457;SDS011;6801;53.018;11.560;2024-01-16T14:29:03;6.18;;;3.45;;
13457;SDS011;6801;53.018;11.560;2024-01-16T14:31:32;8.65;;;3.28;;
13457;SDS011;6801;53.018;11.560;2024-01-16T14:33:59;8.88;;;3.42;;
13457;SDS011;6801;53.018;11.560;2024-01-16T14:36:26;11.65;;;4.40;;
13457;SDS011;6801;53.018;11.560;2024-01-16T14:38:53;10.70;;;3.45;;
13457;SDS011;6801;53.018;11.560;2024-01-16T14:41:21;9.77;;;3.15;;
13457;SDS011;6801;53.018;11.560;2024-01-16T14:43:48;11.27;;;3.65;;
13457;SDS011;6801;53.018;11.560;2024-01-16T14:46:14;10.18;;;3.15;;
13457;SDS011;6801;53.018;11.560;2024-01-16T14:48:44;8.18;;;3.30;;
13457;SDS011;6801;53.018;11.560;2024-01-16T14:51:11;9.40;;;3.33;;
13457;SDS011;6801;53.018;11.560;2024-01-16T14:53:38;11.35;;;2.90;;
13457;SDS011;6801;53.018;11.560;2024-01-16T14:56:05;7.47;;;3.15;;
13457;SDS011;6801;53.018;11.560;2024-01-16T14:58:32;13.10;;;3.92;;
13457;SDS011;6801;53.018;11.560;2024-01-16T15:00:59;6.70;;;2.95;;